createdAt,value
2022-12-31T00:00:38.804Z,100858.75
2022-12-31T00:03:42.811Z,100867.50
2022-12-31T00:06:48.195Z,100866.09
2022-12-31T00:09:57.759Z,100872.78
2022-12-31T00:13:00.493Z,100869.19
2022-12-31T00:16:26.848Z,100869.28
2022-12-31T00:19:30.034Z,100877.56
2022-12-31T00:22:33.369Z,100877.31
2022-12-31T00:25:36.772Z,100874.56
2022-12-31T00:28:40.811Z,100876.63
2022-12-31T00:32:03.465Z,100885.56
2022-12-31T00:35:08.877Z,100892.03
2022-12-31T00:38:31.917Z,100900.88
2022-12-31T00:41:44.245Z,100891.66
2022-12-31T00:44:49.121Z,100886.84
2022-12-31T00:47:52.322Z,100883.69
2022-12-31T00:51:18.759Z,100873.53
2022-12-31T00:54:32.869Z,100885.84
2022-12-31T00:57:35.733Z,100885.28
2022-12-31T01:00:43.932Z,100891.19
2022-12-31T01:03:48.871Z,100895.44
2022-12-31T01:06:54.094Z,100890.41
2022-12-31T01:09:56.851Z,100893.50
2022-12-31T01:13:00.157Z,100895.13
2022-12-31T01:16:11.101Z,100898.00
2022-12-31T01:19:21.615Z,100902.03
2022-12-31T01:22:24.431Z,100910.94
2022-12-31T01:25:27.749Z,100910.94
2022-12-31T01:28:31.270Z,100917.22
2022-12-31T01:31:35.562Z,100924.41
2022-12-31T01:34:38.356Z,100934.47
2022-12-31T01:37:53.575Z,100935.81
2022-12-31T01:40:56.365Z,100918.22
2022-12-31T01:44:02.821Z,100920.69
2022-12-31T01:47:12.702Z,100924.91
2022-12-31T01:50:30.695Z,100927.28
2022-12-31T01:53:53.584Z,100920.56
2022-12-31T01:57:08.461Z,100916.84
2022-12-31T02:00:11.739Z,100913.28
2022-12-31T02:03:15.407Z,100915.28
2022-12-31T02:06:35.129Z,100916.44
2022-12-31T02:09:57.951Z,100920.53
2022-12-31T02:13:21.396Z,100923.34
2022-12-31T02:16:58.931Z,100917.63
2022-12-31T02:20:39.485Z,100920.69
2022-12-31T02:24:08.282Z,100929.63
2022-12-31T02:27:26.915Z,100927.22
2022-12-31T02:30:58.879Z,100925.37
2022-12-31T02:34:32.105Z,100914.22
2022-12-31T02:37:38.116Z,100926.22
2022-12-31T02:40:47.195Z,100918.31
2022-12-31T02:44:32.236Z,100919.88
2022-12-31T02:47:49.594Z,100929.56
2022-12-31T02:51:06.503Z,100931.09
2022-12-31T02:54:45.138Z,100942.88
2022-12-31T02:58:44.119Z,100931.47
2022-12-31T03:02:16.527Z,100935.50
2022-12-31T03:05:23.988Z,100943.25
2022-12-31T03:08:55.954Z,100945.22
2022-12-31T03:12:17.918Z,100929.94
2022-12-31T03:15:27.523Z,100926.91
2022-12-31T03:18:56.221Z,100914.41
2022-12-31T03:22:28.565Z,100916.09
2022-12-31T03:25:40.544Z,100917.50
2022-12-31T03:28:47.943Z,100900.91
2022-12-31T03:31:51.411Z,100909.47
2022-12-31T03:34:56.972Z,100914.66
2022-12-31T03:38:04.922Z,100918.63
2022-12-31T03:41:18.473Z,100916.34
2022-12-31T03:44:21.814Z,100915.53
2022-12-31T03:47:25.294Z,100914.31
2022-12-31T03:50:33.773Z,100917.31
2022-12-31T03:53:46.326Z,100921.63
2022-12-31T03:56:52.070Z,100930.78
2022-12-31T04:00:21.746Z,100924.66
2022-12-31T04:04:04.683Z,100928.59
2022-12-31T04:07:07.793Z,100924.34
2022-12-31T04:10:15.458Z,100913.47
2022-12-31T04:13:18.522Z,100924.56
2022-12-31T04:16:50.427Z,100916.16
2022-12-31T04:19:53.387Z,100923.66
2022-12-31T04:22:57.082Z,100927.91
2022-12-31T04:25:59.821Z,100932.81
2022-12-31T04:29:26.644Z,100929.91
2022-12-31T04:32:29.429Z,100939.63
2022-12-31T04:35:36.363Z,100943.59
2022-12-31T04:38:47.351Z,100949.53
2022-12-31T04:41:55.155Z,100959.22
2022-12-31T04:45:18.199Z,100961.41
2022-12-31T04:48:42.373Z,100964.66
2022-12-31T04:51:46.474Z,100968.34
2022-12-31T04:54:53.608Z,100964.41
2022-12-31T04:58:16.587Z,100967.19
2022-12-31T05:01:22.595Z,100985.56
2022-12-31T05:04:25.567Z,100980.91
2022-12-31T05:07:28.683Z,100967.97
2022-12-31T05:10:34.415Z,100959.66
2022-12-31T05:13:57.383Z,100982.47
2022-12-31T05:17:11.735Z,100988.00
2022-12-31T05:20:36.631Z,101006.03
2022-12-31T05:23:39.711Z,101020.47
2022-12-31T05:26:47.343Z,101012.78
2022-12-31T05:29:50.240Z,101006.34
2022-12-31T05:32:53.825Z,101012.31
2022-12-31T05:36:17.163Z,101005.03
2022-12-31T05:39:20.855Z,101019.22
2022-12-31T05:42:24.046Z,101026.59
2022-12-31T05:45:31.835Z,101030.28
2022-12-31T05:48:34.758Z,101034.84
2022-12-31T05:51:38.022Z,101040.00
2022-12-31T05:54:41.328Z,101047.28
2022-12-31T05:58:15.688Z,101054.69
2022-12-31T06:01:38.530Z,101056.66
2022-12-31T06:04:43.301Z,101068.09
2022-12-31T06:07:46.297Z,101064.25
2022-12-31T06:10:59.452Z,101065.91
2022-12-31T06:14:03.363Z,101051.72
2022-12-31T06:17:06.440Z,101058.16
2022-12-31T06:20:29.097Z,101065.62
2022-12-31T06:23:41.193Z,101071.19
2022-12-31T06:26:43.897Z,101076.69
2022-12-31T06:29:51.221Z,101071.13
2022-12-31T06:32:58.178Z,101065.81
2022-12-31T06:36:07.754Z,101078.69
2022-12-31T06:39:10.894Z,101077.97
2022-12-31T06:42:14.473Z,101068.78
2022-12-31T06:45:19.801Z,101065.00
2022-12-31T06:48:31.968Z,101075.81
2022-12-31T06:51:46.269Z,101086.19
2022-12-31T06:54:50.934Z,101083.28
2022-12-31T06:58:14.467Z,101086.75
2022-12-31T07:02:00.307Z,101087.97
2022-12-31T07:05:32.765Z,101081.66
2022-12-31T07:09:04.773Z,101076.44
2022-12-31T07:12:54.419Z,101089.00
2022-12-31T07:16:44.251Z,101103.47
2022-12-31T07:20:13.379Z,101106.12
2022-12-31T07:23:17.046Z,101098.94
2022-12-31T07:26:44.620Z,101098.50
2022-12-31T07:30:06.225Z,101101.50
2022-12-31T07:33:21.934Z,101086.31
2022-12-31T07:36:52.663Z,101102.75
2022-12-31T07:40:14.083Z,101111.41
2022-12-31T07:43:29.914Z,101121.25
2022-12-31T07:46:39.201Z,101133.78
2022-12-31T07:49:44.150Z,101137.03
2022-12-31T07:52:47.573Z,101154.47
2022-12-31T07:55:55.279Z,101133.25
2022-12-31T07:59:20.987Z,101148.56
2022-12-31T08:02:46.340Z,101151.75
2022-12-31T08:06:18.752Z,101149.59
2022-12-31T08:09:58.338Z,101133.16
2022-12-31T08:13:04.280Z,101143.88
2022-12-31T08:16:11.749Z,101145.13
2022-12-31T08:19:33.660Z,101161.03
2022-12-31T08:23:17.590Z,101158.84
2022-12-31T08:26:42.150Z,101151.19
2022-12-31T08:30:02.762Z,101168.87
2022-12-31T08:33:18.472Z,101172.59
2022-12-31T08:36:30.680Z,101203.13
2022-12-31T08:39:49.912Z,101205.94
2022-12-31T08:42:55.660Z,101205.28
2022-12-31T08:46:00.066Z,101214.75
2022-12-31T08:49:03.187Z,101198.63
2022-12-31T08:52:13.145Z,101197.16
2022-12-31T08:55:18.314Z,101212.28
2022-12-31T08:58:33.500Z,101217.97
2022-12-31T09:01:59.535Z,101215.41
2022-12-31T09:05:22.074Z,101235.53
2022-12-31T09:09:02.703Z,101235.34
2022-12-31T09:12:34.023Z,101224.75
2022-12-31T09:15:42.528Z,101243.72
2022-12-31T09:18:45.806Z,101229.91
2022-12-31T09:21:50.899Z,101219.63
2022-12-31T09:24:54.338Z,101209.06
2022-12-31T09:28:15.550Z,101195.75
2022-12-31T09:31:47.893Z,101191.16
2022-12-31T09:35:36.904Z,101179.09
2022-12-31T09:38:55.809Z,101174.78
2022-12-31T09:42:15.751Z,101171.88
2022-12-31T09:45:40.106Z,101165.47
2022-12-31T09:49:01.178Z,101150.72
2022-12-31T09:52:39.383Z,101168.56
2022-12-31T09:55:51.083Z,101157.75
2022-12-31T09:59:13.689Z,101174.75
2022-12-31T10:02:35.496Z,101185.69
2022-12-31T10:05:57.327Z,101174.91
2022-12-31T10:09:21.957Z,101171.59
2022-12-31T10:12:52.064Z,101179.91
2022-12-31T10:16:29.160Z,101175.34
2022-12-31T10:19:35.369Z,101163.34
2022-12-31T10:22:44.292Z,101165.09
2022-12-31T10:25:56.741Z,101182.13
2022-12-31T10:29:30.699Z,101171.53
2022-12-31T10:33:08.017Z,101183.63
2022-12-31T10:36:17.696Z,101140.69
2022-12-31T10:39:47.101Z,101195.97
2022-12-31T10:43:05.118Z,101118.69
2022-12-31T10:46:44.332Z,101155.44
2022-12-31T10:50:09.127Z,101142.66
2022-12-31T10:53:49.946Z,101156.38
2022-12-31T10:57:15.241Z,101150.19
2022-12-31T11:00:23.754Z,101150.28
2022-12-31T11:03:29.598Z,101142.41
2022-12-31T11:07:10.165Z,101137.66
2022-12-31T11:10:34.481Z,101142.22
2022-12-31T11:13:46.883Z,101136.50
2022-12-31T11:17:15.986Z,101116.47
2022-12-31T11:20:57.758Z,101107.84
2022-12-31T11:24:37.180Z,101121.19
2022-12-31T11:27:49.283Z,101122.09
2022-12-31T11:31:15.603Z,101139.56
2022-12-31T11:34:28.716Z,101119.03
2022-12-31T11:37:51.976Z,101137.03
2022-12-31T11:41:35.909Z,101134.09
2022-12-31T11:44:58.398Z,101130.59
2022-12-31T11:48:31.058Z,101115.75
2022-12-31T11:51:50.617Z,101118.53
2022-12-31T11:55:44.411Z,101109.72
2022-12-31T11:58:51.174Z,101116.66
2022-12-31T12:02:19.581Z,101110.56
2022-12-31T12:05:25.306Z,101116.31
2022-12-31T12:08:31.953Z,101120.06
2022-12-31T12:11:39.586Z,101118.50
2022-12-31T12:14:45.091Z,101127.34
2022-12-31T12:17:58.065Z,101107.13
2022-12-31T12:21:05.311Z,101107.06
2022-12-31T12:24:30.102Z,101115.50
2022-12-31T12:27:35.608Z,101114.66
2022-12-31T12:30:41.411Z,101111.47
2022-12-31T12:33:46.373Z,101114.47
2022-12-31T12:36:49.575Z,101105.50
2022-12-31T12:40:04.313Z,101104.63
2022-12-31T12:43:23.779Z,101110.53
2022-12-31T12:46:47.941Z,101102.31
2022-12-31T12:49:54.919Z,101106.53
2022-12-31T12:53:28.111Z,101102.19
2022-12-31T12:56:51.201Z,101102.00
2022-12-31T13:00:17.288Z,101095.72
2022-12-31T13:03:48.741Z,101093.41
2022-12-31T13:07:17.127Z,101101.59
2022-12-31T13:10:38.551Z,101101.34
2022-12-31T13:14:01.833Z,101091.47
2022-12-31T13:17:23.634Z,101088.31
2022-12-31T13:20:29.168Z,101088.81
2022-12-31T13:23:44.299Z,101098.28
2022-12-31T13:27:22.654Z,101109.44
2022-12-31T13:30:35.619Z,101104.28
2022-12-31T13:33:45.174Z,101108.22
2022-12-31T13:37:22.249Z,101103.56
2022-12-31T13:40:35.836Z,101115.13
2022-12-31T13:43:51.884Z,101114.19
2022-12-31T13:47:12.919Z,101120.12
2022-12-31T13:50:22.648Z,101134.53
2022-12-31T13:53:45.169Z,101126.97
2022-12-31T13:56:51.260Z,101128.59
2022-12-31T14:00:00.169Z,101121.75
2022-12-31T14:03:16.479Z,101125.94
2022-12-31T14:06:24.885Z,101136.53
2022-12-31T14:09:36.655Z,101135.22
2022-12-31T14:12:52.980Z,101130.69
2022-12-31T14:16:22.779Z,101137.75
2022-12-31T14:19:50.406Z,101140.75
2022-12-31T14:22:56.456Z,101132.25
2022-12-31T14:26:09.000Z,101135.44
2022-12-31T14:29:14.861Z,101133.31
2022-12-31T14:32:26.029Z,101133.62
2022-12-31T14:35:34.891Z,101135.34
2022-12-31T14:38:55.873Z,101134.16
2022-12-31T14:42:29.540Z,101139.88
2022-12-31T14:46:14.587Z,101135.84
2022-12-31T14:49:32.682Z,101124.94
2022-12-31T14:52:49.670Z,101134.53
2022-12-31T14:56:00.407Z,101152.97
2022-12-31T14:59:04.314Z,101155.69
2022-12-31T15:02:27.030Z,101158.06
2022-12-31T15:05:33.973Z,101154.34
2022-12-31T15:08:43.043Z,101163.03
2022-12-31T15:11:46.326Z,101148.34
2022-12-31T15:14:55.245Z,101155.72
2022-12-31T15:18:15.834Z,101161.09
2022-12-31T15:21:41.826Z,101152.94
2022-12-31T15:24:47.320Z,101160.38
2022-12-31T15:27:50.759Z,101173.34
2022-12-31T15:30:57.846Z,101167.44
2022-12-31T15:34:02.239Z,101166.34
2022-12-31T15:37:32.620Z,101169.19
2022-12-31T15:40:52.919Z,101151.41
2022-12-31T15:44:13.695Z,101155.81
2022-12-31T15:47:48.671Z,101151.44
2022-12-31T15:50:56.086Z,101152.72
2022-12-31T15:54:00.912Z,101151.00
2022-12-31T15:57:09.255Z,101151.50
2022-12-31T16:00:21.985Z,101153.44
2022-12-31T16:03:29.792Z,101155.28
2022-12-31T16:06:39.181Z,101149.53
2022-12-31T16:09:42.839Z,101144.69
2022-12-31T16:12:46.093Z,101139.09
2022-12-31T16:15:53.193Z,101144.53
2022-12-31T16:18:57.293Z,101161.41
2022-12-31T16:22:19.141Z,101162.94
2022-12-31T16:25:31.507Z,101160.19
2022-12-31T16:28:35.820Z,101154.56
2022-12-31T16:31:40.652Z,101162.53
2022-12-31T16:34:43.791Z,101148.97
2022-12-31T16:38:10.670Z,101163.06
2022-12-31T16:41:19.217Z,101163.28
2022-12-31T16:44:41.663Z,101158.56
2022-12-31T16:47:45.261Z,101159.81
2022-12-31T16:50:54.706Z,101158.94
2022-12-31T16:53:58.605Z,101155.91
2022-12-31T16:57:02.177Z,101156.66
2022-12-31T17:00:07.063Z,101156.22
2022-12-31T17:03:21.364Z,101160.03
2022-12-31T17:06:25.697Z,101161.41
2022-12-31T17:09:36.621Z,101157.16
2022-12-31T17:13:25.401Z,101164.03
2022-12-31T17:16:11.710Z,101157.16
2022-12-31T17:19:43.392Z,101160.00
2022-12-31T17:22:46.328Z,101154.63
2022-12-31T17:25:49.548Z,101156.25
2022-12-31T17:28:55.420Z,101164.38
2022-12-31T17:32:00.013Z,101176.16
2022-12-31T17:35:02.903Z,101176.53
2022-12-31T17:38:18.445Z,101180.69
2022-12-31T17:41:28.148Z,101188.94
2022-12-31T17:44:35.578Z,101170.50
2022-12-31T17:47:44.713Z,101166.81
2022-12-31T17:50:53.430Z,101160.38
2022-12-31T17:53:56.391Z,101165.09
2022-12-31T17:57:27.745Z,101162.13
2022-12-31T18:00:33.353Z,101163.91
2022-12-31T18:03:36.730Z,101173.97
2022-12-31T18:06:39.450Z,101172.94
2022-12-31T18:09:44.328Z,101177.78
2022-12-31T18:12:49.195Z,101181.75
2022-12-31T18:15:54.076Z,101173.75
2022-12-31T18:19:00.550Z,101170.00
2022-12-31T18:22:03.679Z,101177.06
2022-12-31T18:25:07.506Z,101178.81
2022-12-31T18:28:11.898Z,101179.69
2022-12-31T18:31:34.743Z,101179.69
2022-12-31T18:34:38.607Z,101183.44
2022-12-31T18:37:51.685Z,101181.44
2022-12-31T18:41:06.415Z,101192.72
2022-12-31T18:44:11.713Z,101198.22
2022-12-31T18:47:23.307Z,101198.97
2022-12-31T18:50:26.110Z,101190.94
2022-12-31T18:53:29.233Z,101189.87
2022-12-31T18:56:32.140Z,101186.84
2022-12-31T18:59:43.921Z,101188.19
2022-12-31T19:03:06.617Z,101189.22
2022-12-31T19:06:10.170Z,101195.28
2022-12-31T19:09:44.669Z,101192.66
2022-12-31T19:13:00.311Z,101199.22
2022-12-31T19:16:26.414Z,101186.72
2022-12-31T19:20:08.548Z,101195.12
2022-12-31T19:23:22.406Z,101194.69
2022-12-31T19:26:25.457Z,101195.31
2022-12-31T19:29:28.512Z,101192.50
2022-12-31T19:32:31.570Z,101192.31
2022-12-31T19:35:34.392Z,101198.44
2022-12-31T19:38:38.097Z,101197.22
2022-12-31T19:41:43.774Z,101207.19
2022-12-31T19:44:46.934Z,101213.47
2022-12-31T19:47:54.425Z,101221.16
2022-12-31T19:50:57.537Z,101221.84
2022-12-31T19:54:00.275Z,101229.47
2022-12-31T19:57:03.547Z,101219.00
2022-12-31T20:00:07.846Z,101211.41
2022-12-31T20:03:17.927Z,101202.78
2022-12-31T20:06:21.174Z,101193.53
2022-12-31T20:09:24.008Z,101203.06
2022-12-31T20:12:28.285Z,101199.28
2022-12-31T20:15:37.498Z,101208.59
2022-12-31T20:18:41.916Z,101204.16
2022-12-31T20:21:47.899Z,101186.72
2022-12-31T20:24:51.145Z,101195.28
2022-12-31T20:27:54.919Z,101184.09
2022-12-31T20:30:58.332Z,101192.00
2022-12-31T20:34:01.224Z,101190.38
2022-12-31T20:37:05.020Z,101183.06
2022-12-31T20:40:08.591Z,101179.16
2022-12-31T20:43:14.495Z,101181.88
2022-12-31T20:46:24.443Z,101181.88
2022-12-31T20:50:00.651Z,101181.03
2022-12-31T20:52:50.413Z,101183.16
2022-12-31T20:55:53.891Z,101181.03
2022-12-31T20:58:57.645Z,101177.16
2022-12-31T21:05:23.781Z,101160.00
2022-12-31T21:08:32.777Z,101159.16
2022-12-31T21:12:01.123Z,101157.16
2022-12-31T21:15:05.361Z,101159.94
2022-12-31T21:18:28.834Z,101166.69
2022-12-31T21:21:32.478Z,101162.41
2022-12-31T21:24:40.530Z,101174.03
2022-12-31T21:27:43.768Z,101175.97
2022-12-31T21:30:48.046Z,101158.19
2022-12-31T21:33:55.590Z,101160.00
2022-12-31T21:36:58.681Z,101177.25
2022-12-31T21:40:02.240Z,101178.00
2022-12-31T21:43:05.385Z,101179.06
2022-12-31T21:46:09.829Z,101182.09
2022-12-31T21:49:12.794Z,101188.41
2022-12-31T21:52:28.592Z,101179.00
2022-12-31T21:55:49.886Z,101182.28
2022-12-31T21:59:16.915Z,101180.28
2022-12-31T22:02:38.845Z,101185.09
2022-12-31T22:05:52.383Z,101179.16
2022-12-31T22:08:56.887Z,101180.50
2022-12-31T22:12:02.171Z,101184.72
2022-12-31T22:15:15.459Z,101170.47
2022-12-31T22:18:28.982Z,101169.97
2022-12-31T22:21:31.918Z,101163.84
2022-12-31T22:24:35.086Z,101168.69
2022-12-31T22:27:37.841Z,101166.19
2022-12-31T22:30:41.511Z,101159.56
2022-12-31T22:33:45.176Z,101160.94
2022-12-31T22:36:48.293Z,101165.22
2022-12-31T22:39:53.414Z,101174.56
2022-12-31T22:42:56.521Z,101172.22
2022-12-31T22:45:59.405Z,101173.75
2022-12-31T22:49:04.121Z,101185.59
2022-12-31T22:52:08.801Z,101183.66
2022-12-31T22:55:12.836Z,101178.50
2022-12-31T22:58:19.752Z,101183.66
2022-12-31T23:01:25.003Z,101195.44
2022-12-31T23:04:28.759Z,101189.97
2022-12-31T23:07:32.100Z,101189.59
2022-12-31T23:10:55.036Z,101180.81
2022-12-31T23:14:16.943Z,101181.94
2022-12-31T23:17:46.017Z,101191.66
2022-12-31T23:21:08.391Z,101198.78
2022-12-31T23:24:19.060Z,101203.31
2022-12-31T23:27:24.642Z,101199.72
2022-12-31T23:30:47.275Z,101189.16
2022-12-31T23:33:51.337Z,101187.75
2022-12-31T23:36:54.095Z,101203.34
2022-12-31T23:39:57.247Z,101201.94
2022-12-31T23:43:04.667Z,101207.81
2022-12-31T23:46:08.240Z,101200.06
2022-12-31T23:49:13.140Z,101190.88
2022-12-31T23:52:16.666Z,101198.53
2022-12-31T23:55:24.258Z,101195.03
2022-12-31T23:58:27.287Z,101184.62
